Seven Island Tairyo — JJ3885 — position and weather

sailwx.info

Track history (hours):
 
Tides and Currents Weather Stations Pressure Air Temp Water Temp Dewpoint Dewpoint Depression Visibility Wind Speed Wind Dir Waves Ship Positions

Seven Island Tairyo

Last reported at 2018-Feb-21 08:14 UTC. Time now 2018-Feb-21 17:30 UTC.
Position N 35°05' E 139°05'.

Length 22 m; draft 5.4 m.

Type: Passenger vessel. MMSI: 431602169.

Date/timePositionNaut miles runAvg speedWind from/ knotsBaromVisibWave heightAir tempDewpointWater temp
2018-Feb-21 08:14N 35°05' E 139°05'728.3
2018-Feb-21 08:00N 34°60' E 139°09'1319.9
2018-Feb-21 07:21N 34°47' E 139°06'2720.3
2018-Feb-21 06:01N 34°58' E 139°36'035.0
2018-Feb-21 06:00N 34°58' E 139°36'1937.2
2018-Feb-21 05:30N 35°14' E 139°47'2038.5
2018-Feb-21 04:59N 35°34' E 139°48'5 1.0
2018-Feb-21 00:24N 35°38' E 139°45'0 0.0
2018-Feb-20 08:57N 35°38' E 139°45'1 2.2
2018-Feb-20 08:30N 35°39' E 139°46'1836.5
2018-Feb-20 08:00N 35°21' E 139°45'815.4
2018-Feb-20 07:30N 35°13' E 139°43'2637.2
2018-Feb-20 06:48N 34°52' E 139°26'10 7.8
2018-Feb-20 05:31N 34°57' E 139°36'139.8
2018-Feb-20 05:29N 34°58' E 139°38'1118.4
2018-Feb-20 04:53N 34°60' E 139°51'1540.5
2018-Feb-20 04:31N 35°15' E 139°47'1938.6
2018-Feb-20 04:00N 35°34' E 139°48'5 9.0
2018-Feb-20 03:26N 35°39' E 139°46'1433.2
2018-Feb-20 03:01N 35°25' E 139°47'2339.4
2018-Feb-20 02:26N 35°03' E 139°42'2339.5
2018-Feb-20 01:50N 34°48' E 139°21'1615.3
2018-Feb-20 00:46N 34°58' E 139°36'1143.8
2018-Feb-20 00:31N 35°07' E 139°44'612.4
2018-Feb-20 00:00N 35°13' E 139°43'1734.3
2018-Feb-19 23:30N 35°30' E 139°49'1010.4
2018-Feb-19 22:32N 35°39' E 139°46'0 2.8
2018-Feb-19 22:30N 35°39' E 139°46'1 0.1
2018-Feb-19 09:02N 35°38' E 139°45'0 2.5
2018-Feb-19 08:59N 35°38' E 139°45'1 2.4
2018-Feb-19 08:30N 35°39' E 139°46'1939.0
2018-Feb-19 08:01N 35°20' E 139°45'713.1
2018-Feb-19 07:31N 35°13' E 139°43'2635.2
2018-Feb-19 06:46N 34°52' E 139°26'11 9.4
2018-Feb-19 05:35N 34°58' E 139°37'1014.2
2018-Feb-19 04:52N 35°03' E 139°47'1542.2
2018-Feb-19 04:31N 35°18' E 139°45'1938.2
2018-Feb-19 04:00N 35°37' E 139°46'2 3.4
2018-Feb-19 03:26N 35°39' E 139°46'1432.8
2018-Feb-19 03:00N 35°26' E 139°47'2339.0
2018-Feb-19 02:25N 35°03' E 139°41'2241.4
2018-Feb-19 01:53N 34°48' E 139°21'1714.3
2018-Feb-19 00:44N 34°59' E 139°36'1042.7
2018-Feb-19 00:30N 35°07' E 139°43'713.7
2018-Feb-19 00:00N 35°13' E 139°43'1937.7
2018-Feb-18 23:30N 35°32' E 139°50'810.9
2018-Feb-18 22:44N 35°39' E 139°46'1 4.6
2018-Feb-18 22:30N 35°38' E 139°46'0 0.0
2018-Feb-18 08:48N 35°38' E 139°45'1 2.9
2018-Feb-18 08:24N 35°39' E 139°46'1332.3
2018-Feb-18 08:01N 35°27' E 139°47'2040.6
2018-Feb-18 07:30N 35°06' E 139°46'1113.7
2018-Feb-18 06:42N 34°58' E 139°38'1139.1
2018-Feb-18 06:24N 34°51' E 139°27'15 5.7
2018-Feb-18 03:48N 34°58' E 139°10'929.0
2018-Feb-18 03:29N 35°06' E 139°05'1 1.7
2018-Feb-18 03:00N 35°05' E 139°06'2318.7
2018-Feb-18 01:46N 34°47' E 139°23'1037.6
2018-Feb-18 01:30N 34°47' E 139°12'5 7.1
2018-Feb-18 00:50N 34°47' E 139°06'1210.2
2018-Feb-17 23:39N 34°59' E 139°10'3 8.3
2018-Feb-17 23:19N 34°60' E 139°06'6 0.4
2018-Feb-17 08:14N 35°06' E 139°05'713.3
2018-Feb-17 07:44N 34°59' E 139°08'2 1.7
2018-Feb-17 06:31N 34°59' E 139°10'143.2
2018-Feb-17 06:30N 34°60' E 139°10'6 7.2
2018-Feb-17 05:39N 35°05' E 139°06'539.7
2018-Feb-17 05:30N 34°60' E 139°07'16 6.1
2018-Feb-17 02:54N 34°48' E 139°20'1213.7
2018-Feb-17 02:03N 34°47' E 139°07'235.5
2018-Feb-17 02:00N 34°47' E 139°09'3618.1
2018-Feb-16 23:59N 35°05' E 139°47'1940.3
2018-Feb-16 23:31N 35°24' E 139°47'1516.2
2018-Feb-16 22:35N 35°39' E 139°46'1 5.6
2018-Feb-16 22:29N 35°39' E 139°46'0 0.0
2018-Feb-16 09:13N 35°39' E 139°46'0 0.7
2018-Feb-16 09:00N 35°39' E 139°46'1734.0
2018-Feb-16 08:31N 35°22' E 139°46'918.5
2018-Feb-16 08:00N 35°13' E 139°43'3036.9
2018-Feb-16 07:11N 34°48' E 139°23'1721.7
2018-Feb-16 06:25N 35°00' E 139°37'1228.6
2018-Feb-16 06:00N 35°09' E 139°46'1122.7
2018-Feb-16 05:31N 35°20' E 139°50'0 0.4
2018-Feb-16 05:00N 35°20' E 139°50'0 0.0
2018-Feb-16 02:09N 35°20' E 139°50'0 1.7
2018-Feb-16 02:00N 35°20' E 139°50'815.9
2018-Feb-16 01:30N 35°13' E 139°47'2737.3
2018-Feb-16 00:47N 34°51' E 139°27'1011.2
2018-Feb-15 23:56N 34°51' E 139°15'1218.9
2018-Feb-15 23:19N 35°00' E 139°06'5 0.4
2018-Feb-15 08:44N 35°05' E 139°05'417.3
2018-Feb-15 08:30N 35°02' E 139°08'1518.4
2018-Feb-15 07:41N 34°47' E 139°06'936.9
2018-Feb-15 07:27N 34°49' E 139°16'3 4.0
2018-Feb-15 06:48N 34°51' E 139°19'1136.4
2018-Feb-15 06:30N 34°59' E 139°10'7 8.0
2018-Feb-15 05:37N 35°05' E 139°06'433.1
2018-Feb-15 05:30N 35°06' E 139°10'1428.4
2018-Feb-15 05:00N 35°08' E 139°27'1631.5
2018-Feb-15 04:31N 35°10' E 139°46'1733.6
2018-Feb-15 04:01N 35°27' E 139°48'1120.2
2018-Feb-15 03:27N 35°38' E 139°45'0 0.3
2018-Feb-15 03:00N 35°38' E 139°45'0 0.0
2018-Feb-15 02:30N 35°38' E 139°45'1 2.2
2018-Feb-15 02:00N 35°39' E 139°46'5 9.7
2018-Feb-15 01:29N 35°35' E 139°48'611.4
2018-Feb-15 01:00N 35°29' E 139°49'3 6.2
2018-Feb-15 00:30N 35°26' E 139°48'611.1
2018-Feb-15 00:00N 35°32' E 139°50'610.4
2018-Feb-14 23:26N 35°37' E 139°46'3 3.0
2018-Feb-14 22:35N 35°39' E 139°46'1 6.0
2018-Feb-14 22:30N 35°39' E 139°46'0 0.0
2018-Feb-14 08:42N 35°39' E 139°46'0 1.9
2018-Feb-14 08:30N 35°39' E 139°46'1835.6
2018-Feb-14 08:01N 35°21' E 139°46'2217.8
2018-Feb-14 06:46N 35°00' E 139°39'1337.2
2018-Feb-14 06:26N 34°51' E 139°28'17 6.6
2018-Feb-14 03:54N 34°59' E 139°09'817.3
2018-Feb-14 03:28N 35°06' E 139°05'1 1.4
2018-Feb-14 03:00N 35°06' E 139°05'2115.4
2018-Feb-14 01:40N 34°49' E 139°20'743.8
2018-Feb-14 01:30N 34°48' E 139°12'5 7.8
2018-Feb-14 00:50N 34°47' E 139°06'12 9.9
2018-Feb-13 23:37N 34°59' E 139°09'2 5.5
2018-Feb-13 23:17N 34°60' E 139°07'6 0.4
2018-Feb-13 08:32N 35°05' E 139°05'110.2
2018-Feb-13 08:27N 35°05' E 139°06'1737.6
2018-Feb-13 08:00N 34°49' E 139°07'11 8.6
2018-Feb-13 06:44N 34°51' E 139°20'1240.9
2018-Feb-13 06:27N 34°59' E 139°09'714.2
2018-Feb-13 05:57N 35°05' E 139°05'1 2.7
2018-Feb-13 05:30N 35°05' E 139°06'20 7.4
2018-Feb-13 02:51N 34°49' E 139°20'1114.8
2018-Feb-13 02:04N 34°47' E 139°06'230.9
2018-Feb-13 02:01N 34°48' E 139°08'1819.3
2018-Feb-13 01:05N 34°51' E 139°29'2017.6
2018-Feb-12 23:57N 35°05' E 139°47'1739.7
2018-Feb-12 23:31N 35°22' E 139°46'1721.3
2018-Feb-12 22:42N 35°39' E 139°46'1 5.8
2018-Feb-12 22:30N 35°38' E 139°46'0 0.0
2018-Feb-12 08:12N 35°38' E 139°45'1 2.3
2018-Feb-12 07:42N 35°39' E 139°46'732.4
2018-Feb-12 07:30N 35°33' E 139°49'1836.6
2018-Feb-12 07:00N 35°16' E 139°47'1936.5
2018-Feb-12 06:30N 34°59' E 139°37'1 0.4
2018-Feb-12 04:14N 34°58' E 139°36'938.7
2018-Feb-12 03:59N 35°06' E 139°43'1837.1
2018-Feb-12 03:30N 35°23' E 139°47'1529.6
2018-Feb-12 03:01N 35°38' E 139°45'0 0.0
2018-Feb-11 08:48N 35°38' E 139°45'1 3.8
2018-Feb-11 08:30N 35°39' E 139°46'  
Track history (hours):
 
Tides and Currents Weather Stations Pressure Air Temp Water Temp Dewpoint Dewpoint Depression Visibility Wind Speed Wind Dir Waves Ship Positions

Seven Island Tairyo

Last reported at 2018-Feb-21 08:14 UTC. Time now 2018-Feb-21 17:30 UTC.
Position N 35°05' E 139°05'.

Length 22 m; draft 5.4 m.

Type: Passenger vessel. MMSI: 431602169.

Date/timePositionNaut miles runAvg speedWind from/ knotsBaromVisibWave heightAir tempDewpointWater temp
2018-Feb-21 08:14N 35°05' E 139°05'728.3
2018-Feb-21 08:00N 34°60' E 139°09'1319.9
2018-Feb-21 07:21N 34°47' E 139°06'2720.3
2018-Feb-21 06:01N 34°58' E 139°36'035.0
2018-Feb-21 06:00N 34°58' E 139°36'1937.2
2018-Feb-21 05:30N 35°14' E 139°47'2038.5
2018-Feb-21 04:59N 35°34' E 139°48'5 1.0
2018-Feb-21 00:24N 35°38' E 139°45'0 0.0
2018-Feb-20 08:57N 35°38' E 139°45'1 2.2
2018-Feb-20 08:30N 35°39' E 139°46'1836.5
2018-Feb-20 08:00N 35°21' E 139°45'815.4
2018-Feb-20 07:30N 35°13' E 139°43'2637.2
2018-Feb-20 06:48N 34°52' E 139°26'10 7.8
2018-Feb-20 05:31N 34°57' E 139°36'139.8
2018-Feb-20 05:29N 34°58' E 139°38'1118.4
2018-Feb-20 04:53N 34°60' E 139°51'1540.5
2018-Feb-20 04:31N 35°15' E 139°47'1938.6
2018-Feb-20 04:00N 35°34' E 139°48'5 9.0
2018-Feb-20 03:26N 35°39' E 139°46'1433.2
2018-Feb-20 03:01N 35°25' E 139°47'2339.4
2018-Feb-20 02:26N 35°03' E 139°42'2339.5
2018-Feb-20 01:50N 34°48' E 139°21'1615.3
2018-Feb-20 00:46N 34°58' E 139°36'1143.8
2018-Feb-20 00:31N 35°07' E 139°44'612.4
2018-Feb-20 00:00N 35°13' E 139°43'1734.3
2018-Feb-19 23:30N 35°30' E 139°49'1010.4
2018-Feb-19 22:32N 35°39' E 139°46'0 2.8
2018-Feb-19 22:30N 35°39' E 139°46'1 0.1
2018-Feb-19 09:02N 35°38' E 139°45'0 2.5
2018-Feb-19 08:59N 35°38' E 139°45'1 2.4
2018-Feb-19 08:30N 35°39' E 139°46'1939.0
2018-Feb-19 08:01N 35°20' E 139°45'713.1
2018-Feb-19 07:31N 35°13' E 139°43'2635.2
2018-Feb-19 06:46N 34°52' E 139°26'11 9.4
2018-Feb-19 05:35N 34°58' E 139°37'1014.2
2018-Feb-19 04:52N 35°03' E 139°47'1542.2
2018-Feb-19 04:31N 35°18' E 139°45'1938.2
2018-Feb-19 04:00N 35°37' E 139°46'2 3.4
2018-Feb-19 03:26N 35°39' E 139°46'1432.8
2018-Feb-19 03:00N 35°26' E 139°47'2339.0
2018-Feb-19 02:25N 35°03' E 139°41'2241.4
2018-Feb-19 01:53N 34°48' E 139°21'1714.3
2018-Feb-19 00:44N 34°59' E 139°36'1042.7
2018-Feb-19 00:30N 35°07' E 139°43'713.7
2018-Feb-19 00:00N 35°13' E 139°43'1937.7
2018-Feb-18 23:30N 35°32' E 139°50'810.9
2018-Feb-18 22:44N 35°39' E 139°46'1 4.6
2018-Feb-18 22:30N 35°38' E 139°46'0 0.0
2018-Feb-18 08:48N 35°38' E 139°45'1 2.9
2018-Feb-18 08:24N 35°39' E 139°46'1332.3
2018-Feb-18 08:01N 35°27' E 139°47'2040.6
2018-Feb-18 07:30N 35°06' E 139°46'1113.7
2018-Feb-18 06:42N 34°58' E 139°38'1139.1
2018-Feb-18 06:24N 34°51' E 139°27'15 5.7
2018-Feb-18 03:48N 34°58' E 139°10'929.0
2018-Feb-18 03:29N 35°06' E 139°05'1 1.7
2018-Feb-18 03:00N 35°05' E 139°06'2318.7
2018-Feb-18 01:46N 34°47' E 139°23'1037.6
2018-Feb-18 01:30N 34°47' E 139°12'5 7.1
2018-Feb-18 00:50N 34°47' E 139°06'1210.2
2018-Feb-17 23:39N 34°59' E 139°10'3 8.3
2018-Feb-17 23:19N 34°60' E 139°06'6 0.4
2018-Feb-17 08:14N 35°06' E 139°05'713.3
2018-Feb-17 07:44N 34°59' E 139°08'2 1.7
2018-Feb-17 06:31N 34°59' E 139°10'143.2
2018-Feb-17 06:30N 34°60' E 139°10'6 7.2
2018-Feb-17 05:39N 35°05' E 139°06'539.7
2018-Feb-17 05:30N 34°60' E 139°07'16 6.1
2018-Feb-17 02:54N 34°48' E 139°20'1213.7
2018-Feb-17 02:03N 34°47' E 139°07'235.5
2018-Feb-17 02:00N 34°47' E 139°09'3618.1
2018-Feb-16 23:59N 35°05' E 139°47'1940.3
2018-Feb-16 23:31N 35°24' E 139°47'1516.2
2018-Feb-16 22:35N 35°39' E 139°46'1 5.6
2018-Feb-16 22:29N 35°39' E 139°46'0 0.0
2018-Feb-16 09:13N 35°39' E 139°46'0 0.7
2018-Feb-16 09:00N 35°39' E 139°46'1734.0
2018-Feb-16 08:31N 35°22' E 139°46'918.5
2018-Feb-16 08:00N 35°13' E 139°43'3036.9
2018-Feb-16 07:11N 34°48' E 139°23'1721.7
2018-Feb-16 06:25N 35°00' E 139°37'1228.6
2018-Feb-16 06:00N 35°09' E 139°46'1122.7
2018-Feb-16 05:31N 35°20' E 139°50'0 0.4
2018-Feb-16 05:00N 35°20' E 139°50'0 0.0
2018-Feb-16 02:09N 35°20' E 139°50'0 1.7
2018-Feb-16 02:00N 35°20' E 139°50'815.9
2018-Feb-16 01:30N 35°13' E 139°47'2737.3
2018-Feb-16 00:47N 34°51' E 139°27'1011.2
2018-Feb-15 23:56N 34°51' E 139°15'1218.9
2018-Feb-15 23:19N 35°00' E 139°06'5 0.4
2018-Feb-15 08:44N 35°05' E 139°05'417.3
2018-Feb-15 08:30N 35°02' E 139°08'1518.4
2018-Feb-15 07:41N 34°47' E 139°06'936.9
2018-Feb-15 07:27N 34°49' E 139°16'3 4.0
2018-Feb-15 06:48N 34°51' E 139°19'1136.4
2018-Feb-15 06:30N 34°59' E 139°10'7 8.0
2018-Feb-15 05:37N 35°05' E 139°06'433.1
2018-Feb-15 05:30N 35°06' E 139°10'1428.4
2018-Feb-15 05:00N 35°08' E 139°27'1631.5
2018-Feb-15 04:31N 35°10' E 139°46'1733.6
2018-Feb-15 04:01N 35°27' E 139°48'1120.2
2018-Feb-15 03:27N 35°38' E 139°45'0 0.3
2018-Feb-15 03:00N 35°38' E 139°45'0 0.0
2018-Feb-15 02:30N 35°38' E 139°45'1 2.2
2018-Feb-15 02:00N 35°39' E 139°46'5 9.7
2018-Feb-15 01:29N 35°35' E 139°48'611.4
2018-Feb-15 01:00N 35°29' E 139°49'3 6.2
2018-Feb-15 00:30N 35°26' E 139°48'611.1
2018-Feb-15 00:00N 35°32' E 139°50'610.4
2018-Feb-14 23:26N 35°37' E 139°46'3 3.0
2018-Feb-14 22:35N 35°39' E 139°46'1 6.0
2018-Feb-14 22:30N 35°39' E 139°46'0 0.0
2018-Feb-14 08:42N 35°39' E 139°46'0 1.9
2018-Feb-14 08:30N 35°39' E 139°46'1835.6
2018-Feb-14 08:01N 35°21' E 139°46'2217.8
2018-Feb-14 06:46N 35°00' E 139°39'1337.2
2018-Feb-14 06:26N 34°51' E 139°28'17 6.6
2018-Feb-14 03:54N 34°59' E 139°09'817.3
2018-Feb-14 03:28N 35°06' E 139°05'1 1.4
2018-Feb-14 03:00N 35°06' E 139°05'2115.4
2018-Feb-14 01:40N 34°49' E 139°20'743.8
2018-Feb-14 01:30N 34°48' E 139°12'5 7.8
2018-Feb-14 00:50N 34°47' E 139°06'12 9.9
2018-Feb-13 23:37N 34°59' E 139°09'2 5.5
2018-Feb-13 23:17N 34°60' E 139°07'6 0.4
2018-Feb-13 08:32N 35°05' E 139°05'110.2
2018-Feb-13 08:27N 35°05' E 139°06'1737.6
2018-Feb-13 08:00N 34°49' E 139°07'11 8.6
2018-Feb-13 06:44N 34°51' E 139°20'1240.9
2018-Feb-13 06:27N 34°59' E 139°09'714.2
2018-Feb-13 05:57N 35°05' E 139°05'1 2.7
2018-Feb-13 05:30N 35°05' E 139°06'20 7.4
2018-Feb-13 02:51N 34°49' E 139°20'1114.8
2018-Feb-13 02:04N 34°47' E 139°06'230.9
2018-Feb-13 02:01N 34°48' E 139°08'1819.3
2018-Feb-13 01:05N 34°51' E 139°29'2017.6
2018-Feb-12 23:57N 35°05' E 139°47'1739.7
2018-Feb-12 23:31N 35°22' E 139°46'1721.3
2018-Feb-12 22:42N 35°39' E 139°46'1 5.8
2018-Feb-12 22:30N 35°38' E 139°46'0 0.0
2018-Feb-12 08:12N 35°38' E 139°45'1 2.3
2018-Feb-12 07:42N 35°39' E 139°46'732.4
2018-Feb-12 07:30N 35°33' E 139°49'1836.6
2018-Feb-12 07:00N 35°16' E 139°47'1936.5
2018-Feb-12 06:30N 34°59' E 139°37'1 0.4
2018-Feb-12 04:14N 34°58' E 139°36'938.7
2018-Feb-12 03:59N 35°06' E 139°43'1837.1
2018-Feb-12 03:30N 35°23' E 139°47'1529.6
2018-Feb-12 03:01N 35°38' E 139°45'0 0.0
2018-Feb-11 08:48N 35°38' E 139°45'1 3.8
2018-Feb-11 08:30N 35°39' E 139°46'  

Dump ship's entire track history